createdAt,value
2018-12-05T00:01:10.209Z,0.33
2018-12-05T00:03:38.584Z,0.40
2018-12-05T00:06:07.010Z,0.10
2018-12-05T00:08:35.666Z,0.37
2018-12-05T00:11:04.506Z,0.20
2018-12-05T00:13:32.892Z,0.63
2018-12-05T00:16:01.390Z,0.60
2018-12-05T00:18:29.781Z,0.67
2018-12-05T00:20:58.288Z,0.60
2018-12-05T00:23:26.720Z,0.57
2018-12-05T00:25:55.116Z,0.57
2018-12-05T00:28:23.523Z,0.50
2018-12-05T00:30:51.955Z,0.47
2018-12-05T00:33:20.762Z,0.60
2018-12-05T00:35:49.631Z,0.57
2018-12-05T00:38:18.128Z,0.50
2018-12-05T00:40:46.572Z,0.40
2018-12-05T00:43:14.980Z,0.40
2018-12-05T00:45:43.528Z,0.43
2018-12-05T00:48:11.909Z,0.43
2018-12-05T00:50:40.317Z,0.60
2018-12-05T00:53:08.787Z,0.37
2018-12-05T00:55:37.157Z,0.50
2018-12-05T00:58:05.554Z,0.40
2018-12-05T01:00:34.001Z,0.23
2018-12-05T01:03:02.413Z,0.47
2018-12-05T01:05:31.481Z,0.37
2018-12-05T01:08:00.020Z,0.47
2018-12-05T01:10:28.524Z,0.53
2018-12-05T01:12:56.913Z,0.20
2018-12-05T01:15:25.331Z,0.20
2018-12-05T01:17:53.755Z,0.20
2018-12-05T01:20:22.189Z,0.40
2018-12-05T01:22:50.593Z,0.30
2018-12-05T01:25:18.977Z,0.30
2018-12-05T01:27:47.493Z,0.30
2018-12-05T01:30:15.928Z,0.73
2018-12-05T01:32:44.376Z,0.13
2018-12-05T01:35:12.758Z,0.73
2018-12-05T01:37:47.817Z,0.27
2018-12-05T01:40:16.205Z,0.20
2018-12-05T01:42:44.588Z,0.20
2018-12-05T01:45:13.119Z,0.30
2018-12-05T01:47:41.540Z,0.20
2018-12-05T01:50:10.137Z,0.30
2018-12-05T01:52:38.623Z,0.40
2018-12-05T01:55:07.131Z,0.30
2018-12-05T01:57:35.525Z,0.20
2018-12-05T02:00:05.053Z,0.30
2018-12-05T02:02:33.448Z,0.23
2018-12-05T02:05:01.950Z,0.50
2018-12-05T02:07:30.478Z,0.30
2018-12-05T02:09:59.253Z,0.20
2018-12-05T02:12:28.301Z,0.30
2018-12-05T02:14:56.718Z,0.33
2018-12-05T02:17:25.120Z,0.53
2018-12-05T02:19:53.500Z,0.20
2018-12-05T02:22:21.926Z,0.20
2018-12-05T02:24:50.366Z,0.50
2018-12-05T02:27:18.744Z,0.30
2018-12-05T02:29:52.553Z,0.40
2018-12-05T02:32:20.963Z,0.30
2018-12-05T02:34:49.352Z,0.40
2018-12-05T02:37:17.778Z,0.40
2018-12-05T02:39:46.662Z,0.23
2018-12-05T02:42:15.038Z,0.40
2018-12-05T02:44:43.441Z,0.37
2018-12-05T02:47:11.847Z,0.40
2018-12-05T02:49:40.250Z,0.40
2018-12-05T02:52:08.667Z,0.50
2018-12-05T02:54:37.045Z,0.70
2018-12-05T02:57:05.563Z,0.50
2018-12-05T02:59:34.125Z,0.37
2018-12-05T03:02:02.536Z,0.40
2018-12-05T03:04:30.931Z,0.63
2018-12-05T03:06:59.344Z,0.47
2018-12-05T03:09:27.957Z,0.60
2018-12-05T03:11:56.345Z,0.77
2018-12-05T03:14:24.936Z,0.50
2018-12-05T03:16:53.344Z,0.70
2018-12-05T03:19:21.747Z,0.63
2018-12-05T03:21:50.184Z,0.63
2018-12-05T03:24:18.586Z,0.50
2018-12-05T03:26:47.140Z,0.50
2018-12-05T03:29:15.585Z,0.40
2018-12-05T03:31:44.004Z,0.50
2018-12-05T03:34:12.410Z,0.73
2018-12-05T03:36:40.841Z,0.53
2018-12-05T03:39:09.705Z,0.60
2018-12-05T03:41:39.152Z,0.60
2018-12-05T03:44:08.072Z,0.50
2018-12-05T03:46:36.464Z,0.60
2018-12-05T03:49:05.057Z,0.67
2018-12-05T03:51:33.478Z,0.40
2018-12-05T03:54:01.864Z,0.50
2018-12-05T03:56:30.364Z,0.47
2018-12-05T03:58:58.883Z,0.57
2018-12-05T04:01:27.309Z,0.60
2018-12-05T04:03:55.705Z,0.50
2018-12-05T04:06:24.230Z,0.50
2018-12-05T04:08:52.628Z,0.50
2018-12-05T04:11:21.039Z,0.60
2018-12-05T04:13:49.457Z,0.60
2018-12-05T04:16:18.170Z,0.70
2018-12-05T04:18:46.564Z,0.40
2018-12-05T04:21:14.954Z,0.30
2018-12-05T04:23:43.390Z,0.50
2018-12-05T04:26:11.876Z,0.40
2018-12-05T04:28:40.329Z,0.40
2018-12-05T04:31:08.709Z,0.30
2018-12-05T04:33:37.141Z,0.57
2018-12-05T04:36:05.593Z,0.37
2018-12-05T04:38:34.103Z,0.30
2018-12-05T04:41:02.497Z,0.30
2018-12-05T04:43:31.412Z,0.50
2018-12-05T04:45:59.806Z,0.50
2018-12-05T04:48:28.239Z,0.20
2018-12-05T04:50:56.696Z,0.40
2018-12-05T04:53:25.088Z,0.40
2018-12-05T04:55:53.480Z,0.20
2018-12-05T04:58:21.917Z,0.70
2018-12-05T05:00:50.369Z,0.60
2018-12-05T05:03:18.928Z,0.50
2018-12-05T05:05:47.420Z,0.50
2018-12-05T05:08:15.902Z,0.70
2018-12-05T05:10:44.289Z,0.40
2018-12-05T05:13:12.723Z,0.50
2018-12-05T05:15:41.242Z,0.50
2018-12-05T05:18:09.761Z,0.63
2018-12-05T05:20:38.257Z,0.40
2018-12-05T05:23:06.649Z,0.40
2018-12-05T05:25:35.053Z,0.50
2018-12-05T05:28:03.587Z,0.53
2018-12-05T05:30:31.988Z,0.30
2018-12-05T05:33:00.377Z,0.37
2018-12-05T05:35:28.807Z,0.40
2018-12-05T05:37:57.410Z,0.50
2018-12-05T05:40:25.817Z,0.60
2018-12-05T05:42:54.294Z,0.40
2018-12-05T05:45:22.797Z,0.40
2018-12-05T05:47:51.187Z,0.40
2018-12-05T05:50:20.667Z,0.60
2018-12-05T05:52:49.413Z,0.60
2018-12-05T05:55:17.873Z,0.80
2018-12-05T05:57:46.289Z,0.67
2018-12-05T06:00:14.736Z,0.50
2018-12-05T06:02:43.102Z,0.93
2018-12-05T06:05:11.524Z,0.43
2018-12-05T06:07:39.905Z,0.43
2018-12-05T06:10:08.602Z,0.53
2018-12-05T06:12:37.027Z,0.53
2018-12-05T06:15:06.787Z,0.43
2018-12-05T06:17:35.183Z,0.40
2018-12-05T06:20:04.469Z,0.40
2018-12-05T06:22:32.861Z,0.37
2018-12-05T06:25:01.247Z,0.43
2018-12-05T06:27:30.002Z,0.73
2018-12-05T06:29:58.396Z,0.27
2018-12-05T06:32:26.779Z,0.73
2018-12-05T06:34:55.184Z,0.50
2018-12-05T06:37:23.601Z,0.73
2018-12-05T06:39:52.041Z,0.40
2018-12-05T06:42:20.477Z,0.40
2018-12-05T06:44:48.849Z,0.50
2018-12-05T06:47:17.347Z,0.50
2018-12-05T06:49:45.889Z,0.40
2018-12-05T06:52:14.397Z,0.30
2018-12-05T06:54:42.784Z,0.30
2018-12-05T06:57:11.217Z,0.73
2018-12-05T06:59:39.651Z,0.50
2018-12-05T07:02:08.105Z,0.37
2018-12-05T07:04:36.522Z,0.40
2018-12-05T07:07:04.974Z,0.30
2018-12-05T07:09:33.388Z,0.20
2018-12-05T07:12:01.826Z,0.60
2018-12-05T07:14:30.237Z,0.70
2018-12-05T07:16:58.663Z,0.30
2018-12-05T07:19:27.061Z,0.30
2018-12-05T07:21:55.580Z,0.40
2018-12-05T07:24:23.969Z,0.30
2018-12-05T07:26:52.838Z,1.00
2018-12-05T07:29:21.217Z,0.30
2018-12-05T07:31:49.597Z,0.50
2018-12-05T07:34:18.410Z,0.50
2018-12-05T07:36:46.810Z,0.40
2018-12-05T07:39:15.203Z,0.20
2018-12-05T07:41:43.624Z,0.47
2018-12-05T07:44:12.007Z,0.43
2018-12-05T07:46:40.393Z,0.43
2018-12-05T07:49:08.965Z,0.30
2018-12-05T07:51:37.916Z,0.30
2018-12-05T07:54:06.305Z,0.27
2018-12-05T07:56:34.775Z,0.30
2018-12-05T07:59:03.239Z,0.40
2018-12-05T08:01:31.696Z,0.40
2018-12-05T08:04:00.120Z,0.23
2018-12-05T08:06:28.528Z,0.40
2018-12-05T08:08:56.903Z,0.20
2018-12-05T08:11:25.472Z,0.93
2018-12-05T08:13:53.856Z,0.57
2018-12-05T08:16:22.275Z,0.40
2018-12-05T08:18:50.699Z,0.47
2018-12-05T08:21:19.123Z,0.50
2018-12-05T08:23:47.775Z,0.27
2018-12-05T08:26:16.189Z,0.30
2018-12-05T08:28:44.585Z,0.33
2018-12-05T08:31:12.997Z,0.10
2018-12-05T08:33:41.452Z,0.30
2018-12-05T08:36:09.882Z,0.30
2018-12-05T08:38:38.257Z,0.30
2018-12-05T08:41:06.694Z,0.57
2018-12-05T08:43:35.060Z,0.30
2018-12-05T08:46:03.554Z,0.30
2018-12-05T08:48:32.159Z,0.60
2018-12-05T08:51:01.217Z,0.57
2018-12-05T08:53:29.600Z,0.53
2018-12-05T08:56:04.803Z,0.57
2018-12-05T08:58:33.541Z,0.30
2018-12-05T09:01:01.920Z,0.30
2018-12-05T09:03:30.329Z,0.40
2018-12-05T09:05:58.711Z,0.30
2018-12-05T09:08:27.083Z,0.50
2018-12-05T09:10:55.489Z,0.30
2018-12-05T09:13:23.880Z,0.30
2018-12-05T09:15:52.309Z,0.40
2018-12-05T09:18:20.692Z,0.13
2018-12-05T09:20:49.080Z,0.67
2018-12-05T09:23:17.452Z,0.57
2018-12-05T09:25:46.252Z,0.50
2018-12-05T09:28:14.656Z,0.30
2018-12-05T09:30:43.467Z,0.30
2018-12-05T09:33:11.889Z,0.40
2018-12-05T09:35:40.283Z,0.50
2018-12-05T09:38:08.681Z,0.50
2018-12-05T09:40:37.427Z,0.80
2018-12-05T09:43:05.826Z,0.90
2018-12-05T09:45:34.200Z,0.83
2018-12-05T09:48:02.609Z,0.40
2018-12-05T09:50:30.976Z,0.63
2018-12-05T09:52:59.590Z,0.50
2018-12-05T09:55:28.068Z,0.57
2018-12-05T09:57:56.460Z,0.50
2018-12-05T10:00:24.825Z,0.60
2018-12-05T10:02:53.568Z,0.40
2018-12-05T10:05:22.073Z,0.60
2018-12-05T10:07:50.473Z,0.60
2018-12-05T10:10:18.917Z,0.40
2018-12-05T10:12:47.362Z,1.10
2018-12-05T10:15:15.868Z,1.00
2018-12-05T10:17:44.402Z,0.50
2018-12-05T10:20:13.397Z,0.60
2018-12-05T10:22:41.749Z,0.80
2018-12-05T10:25:10.280Z,1.17
2018-12-05T10:27:38.861Z,0.60
2018-12-05T10:30:08.933Z,0.60
2018-12-05T10:32:37.482Z,0.30
2018-12-05T10:35:05.989Z,0.70
2018-12-05T10:37:34.816Z,0.90
2018-12-05T10:40:03.249Z,0.57
2018-12-05T10:42:31.814Z,0.30
2018-12-05T10:45:00.202Z,0.43
2018-12-05T10:47:29.740Z,0.60
2018-12-05T10:49:58.264Z,0.83
2018-12-05T10:52:26.767Z,0.67
2018-12-05T10:54:55.419Z,0.90
2018-12-05T10:57:23.809Z,0.63
2018-12-05T10:59:52.173Z,0.67
2018-12-05T11:02:25.944Z,0.40
2018-12-05T11:04:59.742Z,0.30
2018-12-05T11:07:34.091Z,0.50
2018-12-05T11:10:07.932Z,0.50
2018-12-05T11:12:41.624Z,0.27
2018-12-05T11:15:15.443Z,0.60
2018-12-05T11:19:50.778Z,0.30
2018-12-05T11:24:28.740Z,0.40
2018-12-05T11:26:58.088Z,0.70
2018-12-05T11:29:26.610Z,0.30
2018-12-05T11:31:55.026Z,0.63
2018-12-05T11:34:23.545Z,0.70
2018-12-05T11:36:52.189Z,0.37
2018-12-05T11:39:21.830Z,0.93
2018-12-05T11:41:50.302Z,0.50
2018-12-05T11:44:19.093Z,1.10
2018-12-05T11:46:48.539Z,0.60
2018-12-05T11:49:17.634Z,0.40
2018-12-05T11:51:46.007Z,0.40
2018-12-05T11:54:14.405Z,0.90
2018-12-05T11:56:42.915Z,0.50
2018-12-05T11:59:11.402Z,0.20
2018-12-05T12:01:40.017Z,0.50
2018-12-05T12:04:08.464Z,0.80
2018-12-05T12:06:36.863Z,0.50
2018-12-05T12:09:08.691Z,0.50
2018-12-05T12:11:37.489Z,0.67
2018-12-05T12:14:06.129Z,0.57
2018-12-05T12:16:34.557Z,0.30
2018-12-05T12:19:03.251Z,0.67
2018-12-05T12:21:31.635Z,0.57
2018-12-05T12:24:00.037Z,0.40
2018-12-05T12:26:33.105Z,0.43
2018-12-05T12:28:58.830Z,0.50
2018-12-05T12:31:27.425Z,0.40
2018-12-05T12:33:55.807Z,0.63
2018-12-05T12:36:24.332Z,0.50
2018-12-05T12:38:52.814Z,0.73
2018-12-05T12:41:21.461Z,0.90
2018-12-05T12:43:49.894Z,1.10
2018-12-05T12:46:18.502Z,0.77
2018-12-05T12:48:46.909Z,0.53
2018-12-05T12:51:15.335Z,0.57
2018-12-05T12:53:43.802Z,0.30
2018-12-05T12:56:12.215Z,0.30
2018-12-05T12:58:40.845Z,0.50
2018-12-05T13:01:09.406Z,0.30
2018-12-05T13:03:37.790Z,0.40
2018-12-05T13:06:06.157Z,0.40
2018-12-05T13:08:34.593Z,0.57
2018-12-05T13:11:02.988Z,0.60
2018-12-05T13:13:31.400Z,0.50
2018-12-05T13:15:59.792Z,0.40
2018-12-05T13:18:28.315Z,0.50
2018-12-05T13:20:56.738Z,0.60
2018-12-05T13:23:25.699Z,0.70
2018-12-05T13:25:54.094Z,0.40
2018-12-05T13:28:22.466Z,0.40
2018-12-05T13:30:50.883Z,0.20
2018-12-05T13:33:19.473Z,0.57
2018-12-05T13:35:47.962Z,0.70
2018-12-05T13:38:16.451Z,0.50
2018-12-05T13:40:46.993Z,0.60
2018-12-05T13:43:15.673Z,0.40
2018-12-05T13:45:44.272Z,0.43
2018-12-05T13:48:12.656Z,0.60
2018-12-05T13:50:41.041Z,0.50
2018-12-05T13:53:10.131Z,0.60
2018-12-05T13:55:38.559Z,0.50
2018-12-05T13:58:06.945Z,0.30
2018-12-05T14:00:35.827Z,0.40
2018-12-05T14:03:04.222Z,0.40
2018-12-05T14:05:39.377Z,0.50
2018-12-05T14:08:07.817Z,0.43
2018-12-05T14:10:36.186Z,0.50
2018-12-05T14:13:04.617Z,0.60
2018-12-05T14:15:33.017Z,0.60
2018-12-05T14:18:03.311Z,0.60
2018-12-05T14:20:31.876Z,0.67
2018-12-05T14:23:00.317Z,0.67
2018-12-05T14:25:28.893Z,0.40
2018-12-05T14:27:57.660Z,0.67
2018-12-05T14:30:26.071Z,0.97
2018-12-05T14:32:54.465Z,1.00
2018-12-05T14:35:23.065Z,0.63
2018-12-05T14:37:51.448Z,0.60
2018-12-05T14:40:19.868Z,0.60
2018-12-05T14:42:48.393Z,0.50
2018-12-05T14:45:16.765Z,0.50
2018-12-05T14:47:45.133Z,0.70
2018-12-05T14:50:13.566Z,1.10
2018-12-05T14:52:41.934Z,0.60
2018-12-05T14:55:10.410Z,0.60
2018-12-05T14:57:39.346Z,0.40
2018-12-05T15:00:08.473Z,0.30
2018-12-05T15:02:37.125Z,0.50
2018-12-05T15:05:06.495Z,0.63
2018-12-05T15:07:34.989Z,0.40
2018-12-05T15:10:03.386Z,0.37
2018-12-05T15:12:31.935Z,0.83
2018-12-05T15:15:00.309Z,0.47
2018-12-05T15:17:28.700Z,0.40
2018-12-05T15:19:57.159Z,0.50
2018-12-05T15:22:25.601Z,0.77
2018-12-05T15:24:54.326Z,0.60
2018-12-05T15:27:22.825Z,0.60
2018-12-05T15:29:51.219Z,0.50
2018-12-05T15:32:19.693Z,0.60
2018-12-05T15:34:48.275Z,0.50
2018-12-05T15:37:16.807Z,0.47
2018-12-05T15:39:45.390Z,0.60
2018-12-05T15:42:14.053Z,1.00
2018-12-05T15:44:42.421Z,0.63
2018-12-05T15:47:10.809Z,0.60
2018-12-05T15:49:39.219Z,0.43
2018-12-05T15:52:07.604Z,0.53
2018-12-05T15:54:35.997Z,0.50
2018-12-05T15:57:09.833Z,0.90
2018-12-05T15:59:35.256Z,1.37
2018-12-05T16:02:03.965Z,0.70
2018-12-05T16:04:32.605Z,0.73
2018-12-05T16:07:01.109Z,0.90
2018-12-05T16:09:29.519Z,0.80
2018-12-05T16:11:57.933Z,1.00
2018-12-05T16:14:26.390Z,0.60
2018-12-05T16:16:54.815Z,0.50
2018-12-05T16:19:23.305Z,0.43
2018-12-05T16:21:51.721Z,0.70
2018-12-05T16:24:20.139Z,0.83
2018-12-05T16:26:48.569Z,0.90
2018-12-05T16:29:16.965Z,0.40
2018-12-05T16:31:45.356Z,0.90
2018-12-05T16:34:13.806Z,0.90
2018-12-05T16:36:42.450Z,0.60
2018-12-05T16:39:11.013Z,0.90
2018-12-05T16:41:39.532Z,0.63
2018-12-05T16:44:12.892Z,0.60
2018-12-05T16:46:38.985Z,0.37
2018-12-05T16:49:07.485Z,1.00
2018-12-05T16:51:35.877Z,1.00
2018-12-05T16:54:04.975Z,0.80
2018-12-05T16:56:33.383Z,1.03
2018-12-05T16:59:01.776Z,0.43
2018-12-05T17:01:30.202Z,0.70
2018-12-05T17:03:58.687Z,1.10
2018-12-05T17:06:27.076Z,1.27
2018-12-05T17:08:55.480Z,0.80
2018-12-05T17:11:23.921Z,1.03
2018-12-05T17:13:52.330Z,0.53
2018-12-05T17:16:20.746Z,1.07
2018-12-05T17:18:49.226Z,0.73
2018-12-05T17:21:17.708Z,0.70
2018-12-05T17:23:46.093Z,0.70
2018-12-05T17:26:14.648Z,0.60
2018-12-05T17:28:43.137Z,0.70
2018-12-05T17:31:12.008Z,0.50
2018-12-05T17:33:40.445Z,0.47
2018-12-05T17:36:08.984Z,0.60
2018-12-05T17:38:37.388Z,0.70
2018-12-05T17:41:06.320Z,0.50
2018-12-05T17:43:35.083Z,0.50
2018-12-05T17:46:03.543Z,0.90
2018-12-05T17:48:32.425Z,0.60
2018-12-05T17:51:00.976Z,0.60
2018-12-05T17:53:29.507Z,1.00
2018-12-05T17:55:57.915Z,1.40
2018-12-05T17:58:26.288Z,1.10
2018-12-05T18:00:54.924Z,0.60
2018-12-05T18:03:23.619Z,0.90
2018-12-05T18:05:52.066Z,0.80
2018-12-05T18:08:20.601Z,0.70
2018-12-05T18:10:49.732Z,1.03
2018-12-05T18:13:18.484Z,0.60
2018-12-05T18:15:53.549Z,1.03
2018-12-05T18:18:22.258Z,0.63
2018-12-05T18:20:50.756Z,1.20
2018-12-05T18:23:19.274Z,1.27
2018-12-05T18:25:47.786Z,1.10
2018-12-05T18:28:16.266Z,1.00
2018-12-05T18:30:44.827Z,1.00
2018-12-05T18:33:13.188Z,0.80
2018-12-05T18:35:41.570Z,0.80
2018-12-05T18:38:10.141Z,0.63
2018-12-05T18:40:38.697Z,0.90
2018-12-05T18:43:07.234Z,0.90
2018-12-05T18:45:35.953Z,0.60
2018-12-05T18:48:04.493Z,0.77
2018-12-05T18:50:33.013Z,0.80
2018-12-05T18:53:01.621Z,1.00
2018-12-05T18:55:30.129Z,0.80
2018-12-05T18:57:58.503Z,0.77
2018-12-05T19:00:27.037Z,0.70
2018-12-05T19:02:55.417Z,0.53
2018-12-05T19:05:23.858Z,0.80
2018-12-05T19:07:52.315Z,1.90
2018-12-05T19:10:20.845Z,0.57
2018-12-05T19:12:49.614Z,0.90
2018-12-05T19:15:18.047Z,0.83
2018-12-05T19:17:46.489Z,1.13
2018-12-05T19:20:15.013Z,0.70
2018-12-05T19:22:44.945Z,0.83
2018-12-05T19:25:13.366Z,0.90
2018-12-05T19:27:41.756Z,1.00
2018-12-05T19:30:10.474Z,1.30
2018-12-05T19:32:38.853Z,0.70
2018-12-05T19:35:08.133Z,1.23
2018-12-05T19:37:37.210Z,0.90
2018-12-05T19:40:06.516Z,1.00
2018-12-05T19:42:41.180Z,0.30
2018-12-05T19:45:10.259Z,0.80
2018-12-05T19:47:38.641Z,0.80
2018-12-05T19:50:07.908Z,0.83
2018-12-05T19:52:36.295Z,0.90
2018-12-05T19:55:05.672Z,1.37
2018-12-05T19:57:34.244Z,1.03
2018-12-05T20:00:02.767Z,0.97
2018-12-05T20:02:31.174Z,0.80
2018-12-05T20:04:59.585Z,0.93
2018-12-05T20:07:27.969Z,0.60
2018-12-05T20:10:01.039Z,0.87
2018-12-05T20:12:29.486Z,0.90
2018-12-05T20:14:58.092Z,0.90
2018-12-05T20:17:26.473Z,0.80
2018-12-05T20:19:54.902Z,0.63
2018-12-05T20:22:23.829Z,0.53
2018-12-05T20:24:52.293Z,0.90
2018-12-05T20:27:20.727Z,1.17
2018-12-05T20:29:49.149Z,1.30
2018-12-05T20:32:17.667Z,1.00
2018-12-05T20:34:46.461Z,0.90
2018-12-05T20:37:14.985Z,1.07
2018-12-05T20:39:43.380Z,0.90
2018-12-05T20:42:11.802Z,1.17
2018-12-05T20:44:40.175Z,0.93
2018-12-05T20:47:09.165Z,1.43
2018-12-05T20:49:37.666Z,1.20
2018-12-05T20:52:06.087Z,1.53
2018-12-05T20:54:34.507Z,0.87
2018-12-05T20:57:02.993Z,1.00
2018-12-05T20:59:31.667Z,0.87
2018-12-05T21:02:00.047Z,0.50
2018-12-05T21:04:28.524Z,0.87
2018-12-05T21:06:57.113Z,0.83
2018-12-05T21:09:25.524Z,0.60
2018-12-05T21:11:53.950Z,0.83
2018-12-05T21:14:22.340Z,1.03
2018-12-05T21:16:50.732Z,0.93
2018-12-05T21:19:20.237Z,0.77
2018-12-05T21:21:48.618Z,1.17
2018-12-05T21:24:17.343Z,1.13
2018-12-05T21:26:46.031Z,0.77
2018-12-05T21:29:14.413Z,1.17
2018-12-05T21:31:42.805Z,0.83
2018-12-05T21:34:11.236Z,0.90
2018-12-05T21:36:39.726Z,1.30
2018-12-05T21:39:09.333Z,1.10
2018-12-05T21:41:37.934Z,0.80
2018-12-05T21:44:06.341Z,1.30
2018-12-05T21:46:34.728Z,1.30
2018-12-05T21:49:03.478Z,0.90
2018-12-05T21:51:31.874Z,0.90
2018-12-05T21:54:00.241Z,0.90
2018-12-05T21:56:28.719Z,0.70
2018-12-05T21:58:57.128Z,1.77
2018-12-05T22:01:25.544Z,0.90
2018-12-05T22:03:53.955Z,1.23
2018-12-05T22:06:22.337Z,1.37
2018-12-05T22:08:50.745Z,0.97
2018-12-05T22:11:19.185Z,1.23
2018-12-05T22:13:47.584Z,1.63
2018-12-05T22:16:16.033Z,1.20
2018-12-05T22:18:44.591Z,0.90
2018-12-05T22:21:13.301Z,1.30
2018-12-05T22:23:41.705Z,1.20
2018-12-05T22:26:10.842Z,1.13
2018-12-05T22:28:39.250Z,1.20
2018-12-05T22:31:07.652Z,0.90
2018-12-05T22:33:36.165Z,1.63
2018-12-05T22:36:04.570Z,1.20
2018-12-05T22:38:32.965Z,1.50
2018-12-05T22:41:01.361Z,1.77
2018-12-05T22:43:29.744Z,1.60
2018-12-05T22:45:58.157Z,1.10
2018-12-05T22:48:26.573Z,1.23
2018-12-05T22:50:55.302Z,1.63
2018-12-05T22:53:23.696Z,0.90
2018-12-05T22:55:52.126Z,1.13
2018-12-05T22:58:20.531Z,0.80
2018-12-05T23:00:53.487Z,1.00
2018-12-05T23:03:21.860Z,1.30
2018-12-05T23:05:50.381Z,1.23
2018-12-05T23:08:18.823Z,1.53
2018-12-05T23:10:47.228Z,2.37
2018-12-05T23:13:15.637Z,1.27
2018-12-05T23:15:44.422Z,1.70
2018-12-05T23:18:12.825Z,2.00
2018-12-05T23:20:41.222Z,0.93
2018-12-05T23:23:09.664Z,0.90
2018-12-05T23:25:38.043Z,1.27
2018-12-05T23:28:06.413Z,1.07
2018-12-05T23:30:34.976Z,1.40
2018-12-05T23:33:03.377Z,1.17
2018-12-05T23:35:31.776Z,1.40
2018-12-05T23:38:00.283Z,1.43
2018-12-05T23:40:28.661Z,1.20
2018-12-05T23:42:57.212Z,1.37
2018-12-05T23:45:25.767Z,1.20
2018-12-05T23:47:54.176Z,1.10
2018-12-05T23:50:22.564Z,1.87
2018-12-05T23:52:51.357Z,1.20
2018-12-05T23:55:19.742Z,1.60
2018-12-05T23:57:48.129Z,1.67
